Time;durP1;ratioP1;P1;durP2;ratioP2;P2;SDS_P1;SDS_P2;PMS_P1;PMS_P2;Temp;Humidity;BMP_temperature;BMP_pressure;BME280_temperature;BME280_humidity;BME280_pressure;Samples;Min_cycle;Max_cycle;Signal;HPM_P1;HPM_P2
2022/05/08 00:00:15;;;;;;;16.48;5.87;;;;;;;13.31;48.25;100702.23;1787666;80;21225;-72
2022/05/08 00:02:42;;;;;;;15.40;5.45;;;;;;;13.28;48.33;100703.67;1787153;80;20981;-71
2022/05/08 00:05:12;;;;;;;10.08;5.62;;;;;;;13.22;48.70;100695.47;1787704;80;21014;-72
2022/05/08 00:07:38;;;;;;;12.60;6.10;;;;;;;13.17;48.78;100703.58;1787571;80;21017;-72
2022/05/08 00:10:07;;;;;;;9.90;5.87;;;;;;;13.12;48.96;100701.59;1787693;80;21713;-71
2022/05/08 00:12:35;;;;;;;12.43;5.47;;;;;;;13.09;49.11;100699.50;1787576;80;21548;-70
2022/05/08 00:15:04;;;;;;;10.18;5.37;;;;;;;13.03;49.26;100695.33;1787676;80;21001;-71
2022/05/08 00:17:34;;;;;;;10.18;6.00;;;;;;;12.98;49.50;100694.18;1787956;80;21740;-71
2022/05/08 00:20:02;;;;;;;11.68;5.85;;;;;;;12.93;49.83;100692.61;1787907;80;21037;-72
2022/05/08 00:22:29;;;;;;;12.18;4.83;;;;;;;12.89;49.48;100693.67;1787494;80;21052;-72
2022/05/08 00:24:59;;;;;;;8.48;5.45;;;;;;;12.85;49.51;100689.41;1787857;80;21150;-70
2022/05/08 00:27:26;;;;;;;12.33;5.28;;;;;;;12.84;49.38;100691.63;1787523;80;21239;-70
2022/05/08 00:29:52;;;;;;;10.82;5.87;;;;;;;12.79;49.63;100695.34;1787670;80;21096;-71
2022/05/08 00:32:20;;;;;;;14.73;6.60;;;;;;;12.74;50.06;100695.09;1787507;80;21006;-71
2022/05/08 00:34:48;;;;;;;12.70;5.67;;;;;;;12.69;50.06;100689.97;1787716;80;21033;-71
2022/05/08 00:37:15;;;;;;;9.33;5.62;;;;;;;12.65;50.40;100692.31;1787498;79;21274;-72
2022/05/08 00:39:43;;;;;;;12.00;6.00;;;;;;;12.62;50.62;100692.91;1787531;80;21048;-71
2022/05/08 00:42:11;;;;;;;12.78;5.47;;;;;;;12.58;50.74;100684.22;1783612;80;21065;-69
2022/05/08 00:44:38;;;;;;;13.50;5.95;;;;;;;12.55;50.88;100685.66;1779868;80;21510;-70
2022/05/08 00:47:05;;;;;;;13.18;5.70;;;;;;;12.53;51.00;100688.81;1780098;80;21049;-71
2022/05/08 00:49:32;;;;;;;13.78;5.87;;;;;;;12.50;51.13;100683.65;1780004;80;21192;-71
2022/05/08 00:51:59;;;;;;;13.22;5.12;;;;;;;12.48;51.05;100681.52;1779751;80;21038;-71
2022/05/08 00:54:26;;;;;;;9.10;5.28;;;;;;;12.46;50.84;100679.39;1779184;80;21119;-71
2022/05/08 00:56:53;;;;;;;10.75;4.90;;;;;;;12.49;50.81;100679.27;1779078;80;20978;-71
2022/05/08 00:59:19;;;;;;;10.85;5.28;;;;;;;12.47;50.81;100681.09;1779338;80;21525;-70
2022/05/08 01:01:46;;;;;;;9.80;5.47;;;;;;;12.48;50.75;100674.91;1779274;80;21225;-72
2022/05/08 01:04:13;;;;;;;8.53;4.87;;;;;;;12.46;50.70;100680.70;1778916;80;21048;-71
2022/05/08 01:06:40;;;;;;;12.30;5.12;;;;;;;12.44;50.88;100677.25;1779349;80;21101;-71
2022/05/08 01:09:08;;;;;;;10.58;5.15;;;;;;;12.38;50.87;100674.39;1779155;80;21116;-71
2022/05/08 01:11:36;;;;;;;10.10;4.92;;;;;;;12.34;50.88;100670.13;1779162;80;21084;-70
2022/05/08 01:14:03;;;;;;;10.43;5.50;;;;;;;12.30;50.86;100672.00;1779081;80;21314;-70
2022/05/08 01:16:30;;;;;;;12.43;5.10;;;;;;;12.25;50.95;100666.03;1779407;80;21029;-71
2022/05/08 01:18:59;;;;;;;14.15;5.37;;;;;;;12.21;51.00;100667.05;1779289;80;21112;-70
2022/05/08 01:21:41;;;;;;;10.43;5.08;;;;;;;12.18;51.32;100657.92;1779060;80;21081;-70
2022/05/08 01:24:15;;;;;;;12.13;4.85;;;;;;;12.19;50.91;100663.59;1779287;80;21041;-70
2022/05/08 01:26:41;;;;;;;11.00;4.55;;;;;;;12.17;50.99;100666.31;1779246;80;21117;-70
2022/05/08 01:29:08;;;;;;;9.20;4.22;;;;;;;12.16;51.07;100659.28;1779074;80;21537;-71
2022/05/08 01:31:35;;;;;;;8.70;4.33;;;;;;;12.16;50.67;100659.28;1772691;80;21069;-70
2022/05/08 01:34:01;;;;;;;11.63;4.08;;;;;;;12.17;50.68;100658.39;1748481;82;21083;-72
2022/05/08 01:36:28;;;;;;;11.63;4.83;;;;;;;12.16;50.66;100653.15;1748317;82;21068;-71
2022/05/08 01:38:56;;;;;;;10.28;4.50;;;;;;;12.12;50.92;100659.45;1748310;82;21165;-70
2022/05/08 01:41:23;;;;;;;15.60;4.95;;;;;;;12.10;51.02;100655.99;1747966;82;21057;-70
2022/05/08 01:43:51;;;;;;;11.00;4.65;;;;;;;12.03;50.95;100650.53;1757191;80;21089;-70
2022/05/08 01:46:18;;;;;;;14.35;4.67;;;;;;;12.00;50.94;100649.33;1773401;80;21041;-70
2022/05/08 01:48:44;;;;;;;10.00;4.50;;;;;;;11.98;50.88;100648.52;1773529;80;21085;-72
2022/05/08 01:51:12;;;;;;;7.78;4.45;;;;;;;11.94;51.08;100645.98;1773509;80;21240;-70
2022/05/08 01:53:40;;;;;;;8.88;4.42;;;;;;;11.89;51.03;100649.69;1773372;80;21085;-70
2022/05/08 01:56:08;;;;;;;9.28;4.78;;;;;;;11.85;51.23;100660.78;1773558;80;21533;-72
2022/05/08 01:58:36;;;;;;;8.03;4.22;;;;;;;11.79;51.89;100660.98;1773179;80;21534;-71
2022/05/08 02:01:08;;;;;;;8.95;4.37;;;;;;;11.71;52.05;100657.29;1773733;80;21100;-72
2022/05/08 02:03:35;;;;;;;13.22;4.87;;;;;;;11.64;52.27;100655.77;1773450;80;21169;-71
2022/05/08 02:06:02;;;;;;;9.03;4.50;;;;;;;11.57;52.58;100653.36;1773493;80;21558;-70
2022/05/08 02:08:30;;;;;;;8.90;4.60;;;;;;;11.50;52.93;100653.59;1773328;80;21018;-72
2022/05/08 02:10:57;;;;;;;8.80;4.47;;;;;;;11.44;52.66;100656.41;1773583;80;21049;-71
2022/05/08 02:13:23;;;;;;;9.38;4.45;;;;;;;11.42;53.05;100655.59;1773220;80;21124;-71
2022/05/08 02:15:51;;;;;;;8.48;4.12;;;;;;;11.40;53.04;100655.24;1773664;80;21357;-70
2022/05/08 02:18:18;;;;;;;8.90;4.00;;;;;;;11.42;52.53;100654.73;1773327;80;21005;-70
2022/05/08 02:20:47;;;;;;;10.43;4.62;;;;;;;11.45;52.43;100655.95;1773525;80;21617;-70
2022/05/08 02:23:14;;;;;;;12.23;4.62;;;;;;;11.47;52.29;100656.30;1773259;80;21049;-71
2022/05/08 02:25:42;;;;;;;9.90;4.45;;;;;;;11.44;52.38;100659.05;1773413;80;22220;-71
2022/05/08 02:28:09;;;;;;;12.88;4.35;;;;;;;11.43;52.44;100658.63;1773147;80;21200;-71
2022/05/08 02:30:36;;;;;;;8.80;4.20;;;;;;;11.42;52.31;100656.91;1773301;80;21542;-70
2022/05/08 02:33:03;;;;;;;16.48;4.95;;;;;;;11.39;52.21;100657.45;1773480;80;21471;-71
2022/05/08 02:35:29;;;;;;;16.17;5.30;;;;;;;11.35;52.49;100659.34;1773384;80;21034;-71
2022/05/08 02:37:56;;;;;;;8.88;4.25;;;;;;;11.29;52.67;100660.38;1773202;80;21112;-70
2022/05/08 02:40:23;;;;;;;12.43;4.92;;;;;;;11.23;53.05;100662.38;1773757;80;21850;-71
2022/05/08 02:42:51;;;;;;;14.68;5.15;;;;;;;11.18;53.32;100669.11;1777125;80;21048;-71
2022/05/08 02:45:18;;;;;;;15.15;5.30;;;;;;;11.12;53.45;100664.88;1782319;80;21092;-72
2022/05/08 02:47:45;;;;;;;13.70;5.45;;;;;;;11.05;54.11;100669.93;1782104;80;21057;-70
2022/05/08 02:50:12;;;;;;;20.20;7.37;;;;;;;10.98;54.42;100673.66;1782142;80;21064;-71
2022/05/08 02:52:40;;;;;;;21.93;7.35;;;;;;;10.90;54.78;100672.58;1781655;80;21201;-70
2022/05/08 03:00:41;;;;;;;28.12;9.50;;;;;;;10.68;57.35;100669.70;1782180;80;21045;-71
2022/05/08 03:03:08;;;;;;;28.85;9.80;;;;;;;10.61;57.48;100675.20;1781679;80;21053;-70
2022/05/08 03:05:36;;;;;;;34.98;11.53;;;;;;;10.57;57.35;100677.50;1781854;80;21029;-70
2022/05/08 03:08:07;;;;;;;30.17;10.58;;;;;;;10.57;57.23;100682.77;1782062;80;21115;-71
2022/05/08 03:13:20;;;;;;;29.80;10.00;;;;;;;10.56;57.64;100681.91;1781735;80;21065;-72
2022/05/08 03:15:47;;;;;;;26.57;9.45;;;;;;;10.59;57.67;100688.86;1781983;80;21154;-72
2022/05/08 03:18:17;;;;;;;28.85;8.93;;;;;;;10.62;57.64;100689.62;1781802;80;21878;-70
2022/05/08 03:20:47;;;;;;;23.50;8.25;;;;;;;10.66;57.90;100682.05;1781719;80;21658;-71
2022/05/08 03:23:14;;;;;;;11.45;5.30;;;;;;;10.73;57.87;100688.47;1781925;80;21089;-71
2022/05/08 03:25:42;;;;;;;22.50;7.53;;;;;;;10.78;57.50;100686.09;1781985;80;21092;-70
2022/05/08 03:28:09;;;;;;;17.60;6.95;;;;;;;10.86;57.13;100695.12;1781659;80;21077;-71
2022/05/08 03:30:36;;;;;;;23.10;6.92;;;;;;;10.91;56.91;100697.16;1781981;80;21216;-72
2022/05/08 03:33:02;;;;;;;18.95;6.80;;;;;;;10.98;57.00;100695.20;1756557;80;21085;-71
2022/05/08 03:35:31;;;;;;;14.73;6.58;;;;;;;11.01;56.89;100699.91;1750791;82;21558;-70
2022/05/08 03:37:58;;;;;;;11.75;6.17;;;;;;;11.06;56.53;100703.27;1750939;80;21623;-71
2022/05/08 03:40:26;;;;;;;16.75;6.62;;;;;;;11.10;56.32;100699.64;1750918;82;21074;-70
2022/05/08 03:42:54;;;;;;;15.65;6.42;;;;;;;11.15;56.38;100696.86;1738224;82;21141;-71
2022/05/08 03:45:20;;;;;;;13.85;5.65;;;;;;;11.21;55.96;100695.37;1717093;83;21078;-70
2022/05/08 03:47:50;;;;;;;16.82;6.08;;;;;;;11.25;55.67;100694.80;1717062;83;21041;-72
2022/05/08 03:50:20;;;;;;;14.63;6.62;;;;;;;11.35;55.61;100696.27;1717308;83;21018;-71
2022/05/08 03:52:48;;;;;;;13.90;5.73;;;;;;;11.74;55.62;100698.54;1717614;82;21065;-70
2022/05/08 03:55:17;;;;;;;14.98;6.17;;;;;;;12.22;54.09;100693.88;1717325;82;21658;-71
2022/05/08 03:57:45;;;;;;;16.27;5.80;;;;;;;12.82;53.03;100692.19;1717086;83;21027;-70
2022/05/08 04:00:14;;;;;;;12.30;5.33;;;;;;;13.43;51.48;100692.47;1717365;82;21178;-71
2022/05/08 04:02:40;;;;;;;16.70;6.33;;;;;;;13.94;50.11;100678.05;1716914;82;21598;-73
2022/05/08 04:05:09;;;;;;;19.05;5.97;;;;;;;14.50;48.84;100690.22;1716936;83;21541;-71
2022/05/08 04:07:40;;;;;;;13.22;5.85;;;;;;;14.97;46.53;100681.45;1716950;82;21193;-71
2022/05/08 04:10:07;;;;;;;22.48;6.10;;;;;;;15.39;46.21;100689.66;1717188;83;21050;-71
2022/05/08 04:12:35;;;;;;;11.10;4.87;;;;;;;15.85;44.42;100682.56;1716977;83;21071;-70
2022/05/08 04:15:05;;;;;;;13.15;5.30;;;;;;;16.23;43.29;100683.76;1717360;82;21163;-71
2022/05/08 04:17:33;;;;;;;14.70;5.70;;;;;;;16.61;41.78;100677.77;1717216;82;21218;-70
2022/05/08 04:19:59;;;;;;;16.27;6.10;;;;;;;16.92;40.74;100684.11;1717511;82;22188;-70
2022/05/08 04:25:11;;;;;;;15.10;5.62;;;;;;;17.21;39.62;100682.51;1717249;83;21045;-71
2022/05/08 04:27:38;;;;;;;13.58;5.40;;;;;;;17.53;39.16;100686.02;1717084;82;21053;-71
2022/05/08 04:30:06;;;;;;;14.10;5.15;;;;;;;17.50;38.85;100688.83;1717646;83;21054;-70
2022/05/08 04:32:33;;;;;;;19.00;4.92;;;;;;;17.33;38.92;100676.48;1750714;81;21796;-71
2022/05/08 04:34:59;;;;;;;10.13;3.52;;;;;;;17.29;39.13;100684.25;1771354;81;21052;-73
2022/05/08 04:37:27;;;;;;;12.58;3.83;;;;;;;17.28;39.08;100693.20;1771543;81;21001;-72
2022/05/08 04:39:53;;;;;;;8.45;3.45;;;;;;;17.30;39.26;100693.97;1771380;81;21056;-71
2022/05/08 04:42:21;;;;;;;8.75;3.72;;;;;;;17.48;38.97;100690.72;1771809;79;21057;-71
2022/05/08 04:44:48;;;;;;;6.55;3.30;;;;;;;17.34;38.59;100691.98;1724472;83;21141;-71
2022/05/08 04:47:15;;;;;;;7.90;3.58;;;;;;;17.23;38.99;100696.59;1795009;80;21007;-70
2022/05/08 04:49:41;;;;;;;6.35;3.47;;;;;;;17.19;39.45;100695.04;1795304;80;21125;-70
2022/05/08 04:52:09;;;;;;;8.10;3.12;;;;;;;17.03;39.44;100691.03;1795188;80;21019;-71
2022/05/08 04:54:36;;;;;;;11.68;3.85;;;;;;;16.90;39.71;100692.16;1724207;83;21030;-72
2022/05/08 04:57:04;;;;;;;8.00;3.47;;;;;;;16.72;40.03;100694.45;1724643;82;21196;-71
2022/05/08 04:59:30;;;;;;;11.90;3.52;;;;;;;16.73;40.19;100696.19;1794897;80;21018;-72
2022/05/08 05:01:57;;;;;;;10.18;3.95;;;;;;;16.74;40.32;100696.56;1724381;83;21132;-71
2022/05/08 05:04:24;;;;;;;8.08;3.60;;;;;;;16.82;40.29;100694.39;1724061;83;21078;-72
2022/05/08 05:06:50;;;;;;;8.50;3.87;;;;;;;16.89;40.05;100694.92;1724300;83;21073;-71
2022/05/08 05:09:17;;;;;;;6.08;3.37;;;;;;;16.94;39.94;100690.20;1794641;80;21558;-73
2022/05/08 05:11:45;;;;;;;7.00;3.42;;;;;;;17.03;40.08;100691.52;1794792;80;21035;-71
2022/05/08 05:14:12;;;;;;;15.83;3.95;;;;;;;17.18;39.91;100691.53;1794598;80;21215;-71
2022/05/08 05:16:40;;;;;;;13.38;4.00;;;;;;;17.43;39.46;100692.79;1794769;80;21066;-71
2022/05/08 05:19:06;;;;;;;6.83;3.70;;;;;;;17.70;38.88;100688.17;1794665;79;21085;-72
2022/05/08 05:21:32;;;;;;;9.83;3.87;;;;;;;17.76;38.69;100687.34;1723938;83;21235;-71
2022/05/08 05:23:59;;;;;;;10.32;3.80;;;;;;;17.75;39.13;100686.09;1794580;79;21038;-71
2022/05/08 05:26:26;;;;;;;9.30;4.12;;;;;;;17.82;39.23;100689.67;1794485;80;21109;-71
2022/05/08 05:28:52;;;;;;;7.75;3.77;;;;;;;18.07;38.55;100682.91;1724244;82;21062;-72
2022/05/08 05:31:19;;;;;;;11.48;4.28;;;;;;;18.11;38.43;100687.11;1722705;82;21011;-73
2022/05/08 05:33:46;;;;;;;7.72;3.92;;;;;;;18.01;38.48;100687.25;1778710;80;21315;-71
2022/05/08 05:36:14;;;;;;;8.23;3.25;;;;;;;18.10;38.57;100685.38;1779125;80;21048;-72
2022/05/08 05:38:42;;;;;;;12.05;3.67;;;;;;;18.23;38.65;100681.03;1778778;80;21123;-71
2022/05/08 05:41:09;;;;;;;7.78;3.60;;;;;;;18.30;38.61;100683.34;1779026;80;20995;-71
2022/05/08 05:43:35;;;;;;;8.23;4.03;;;;;;;18.20;38.45;100681.23;1778854;80;21093;-74
2022/05/08 05:48:47;;;;;;;8.48;4.25;;;;;;;17.51;39.63;100692.38;1778858;80;21055;-74
2022/05/08 05:51:13;;;;;;;10.13;4.40;;;;;;;17.33;39.70;100688.47;1778909;80;21609;-73
2022/05/08 05:53:40;;;;;;;8.60;4.30;;;;;;;17.27;40.00;100687.47;1778906;80;21083;-72
2022/05/08 05:56:06;;;;;;;14.47;4.35;;;;;;;17.28;40.37;100684.36;1778880;80;21094;-74
2022/05/08 05:58:34;;;;;;;9.95;4.72;;;;;;;17.11;40.41;100695.44;1778743;80;21638;-73
2022/05/08 06:01:00;;;;;;;10.00;3.90;;;;;;;17.04;40.72;100687.89;1778896;80;21031;-72
2022/05/08 06:03:27;;;;;;;12.85;4.95;;;;;;;17.04;40.84;100691.41;1778951;80;21519;-72
2022/05/08 06:05:53;;;;;;;12.23;4.00;;;;;;;17.06;41.09;100696.17;1774127;80;21043;-74
2022/05/08 06:08:19;;;;;;;15.38;4.58;;;;;;;17.09;41.35;100699.14;1778997;80;21654;-71
2022/05/08 06:10:46;;;;;;;9.28;4.80;;;;;;;17.08;41.12;100690.78;1778889;80;21595;-72
2022/05/08 06:13:14;;;;;;;11.93;4.50;;;;;;;17.10;41.35;100698.21;1778882;80;21027;-73
2022/05/08 06:15:40;;;;;;;11.18;4.45;;;;;;;17.17;41.30;100699.59;1779263;80;21004;-72
2022/05/08 06:18:07;;;;;;;12.78;4.92;;;;;;;17.15;41.01;100701.47;1778997;80;21031;-72
2022/05/08 06:20:34;;;;;;;14.28;5.10;;;;;;;17.02;41.71;100697.76;1779138;80;21567;-72
2022/05/08 06:23:01;;;;;;;17.57;5.85;;;;;;;16.91;41.56;100699.22;1779377;80;21742;-72
2022/05/08 06:25:30;;;;;;;15.60;4.58;;;;;;;16.85;41.92;100698.21;1778906;80;21614;-73
2022/05/08 06:27:57;;;;;;;11.10;4.70;;;;;;;16.87;42.11;100704.31;1778941;80;21079;-73
2022/05/08 06:30:23;;;;;;;9.65;4.87;;;;;;;16.92;42.02;100698.73;1779012;80;21058;-71
2022/05/08 06:32:50;;;;;;;9.40;4.55;;;;;;;17.06;41.78;100703.30;1756084;80;21018;-72
2022/05/08 06:35:17;;;;;;;11.78;4.72;;;;;;;17.18;41.40;100698.63;1747909;82;21598;-74
2022/05/08 06:37:44;;;;;;;10.82;5.15;;;;;;;17.17;41.15;100695.11;1747927;82;21093;-71
2022/05/08 06:40:12;;;;;;;11.75;5.40;;;;;;;17.15;41.15;100699.66;1748037;82;21085;-71
2022/05/08 06:42:39;;;;;;;11.93;5.08;;;;;;;17.21;41.18;100701.14;1748065;82;21078;-71
2022/05/08 06:45:08;;;;;;;18.00;5.22;;;;;;;17.33;40.75;100697.78;1743241;82;21030;-72
2022/05/08 06:47:35;;;;;;;12.82;5.28;;;;;;;17.43;41.08;100703.44;1742791;82;21115;-72
2022/05/08 06:50:04;;;;;;;10.18;4.90;;;;;;;17.49;40.91;100699.59;1742621;82;21046;-73
2022/05/08 06:52:31;;;;;;;9.95;4.75;;;;;;;17.53;40.54;100702.44;1742667;82;21021;-73
2022/05/08 06:54:58;;;;;;;10.93;5.37;;;;;;;17.57;40.67;100698.66;1742530;81;21082;-74
2022/05/08 06:57:24;;;;;;;15.10;5.40;;;;;;;17.69;40.81;100701.98;1742952;82;21117;-71
2022/05/08 07:02:42;;;;;;;11.18;4.85;;;;;;;17.76;40.79;100701.12;1742655;82;21089;-75
2022/05/08 07:05:09;;;;;;;14.15;5.35;;;;;;;17.91;40.76;100701.60;1742810;82;20998;-74
2022/05/08 07:07:37;;;;;;;12.25;5.50;;;;;;;18.03;40.50;100701.35;1742574;82;21599;-73
2022/05/08 07:10:04;;;;;;;13.28;5.67;;;;;;;18.11;40.16;100694.25;1742754;82;21045;-75
2022/05/08 07:12:31;;;;;;;14.35;5.08;;;;;;;18.28;40.19;100702.08;1742747;82;21543;-73
2022/05/08 07:15:00;;;;;;;15.13;5.45;;;;;;;18.45;39.96;100699.75;1742561;82;21078;-72
2022/05/08 07:17:29;;;;;;;13.90;5.45;;;;;;;18.74;39.03;100699.75;1742732;82;21523;-72
2022/05/08 07:19:59;;;;;;;12.50;5.58;;;;;;;19.04;37.78;100699.67;1742078;82;21027;-73
2022/05/08 07:22:25;;;;;;;15.15;5.20;;;;;;;19.23;37.94;100693.56;1742569;82;21030;-71
2022/05/08 07:24:52;;;;;;;13.45;5.40;;;;;;;19.31;37.50;100695.72;1742552;82;21260;-72
2022/05/08 07:27:20;;;;;;;16.65;5.30;;;;;;;19.33;37.24;100697.82;1742626;82;21033;-74
2022/05/08 07:29:48;;;;;;;11.22;5.33;;;;;;;19.59;37.46;100703.27;1742552;82;21050;-72
2022/05/08 07:32:16;;;;;;;15.78;6.17;;;;;;;19.75;36.71;100694.66;1768179;79;21074;-72
2022/05/08 07:37:29;;;;;;;13.18;5.20;;;;;;;19.87;36.61;100696.50;1794872;80;21152;-74
2022/05/08 07:39:56;;;;;;;15.15;5.80;;;;;;;19.85;36.35;100689.55;1724131;83;21046;-74
2022/05/08 07:42:22;;;;;;;14.40;5.30;;;;;;;19.66;36.57;100703.25;1724303;83;21054;-73
2022/05/08 07:44:49;;;;;;;13.98;5.80;;;;;;;19.47;37.14;100700.44;1727336;82;21015;-72
2022/05/08 07:47:16;;;;;;;13.45;5.65;;;;;;;19.36;37.31;100703.44;1729656;83;21593;-72
2022/05/08 07:49:43;;;;;;;14.20;5.78;;;;;;;19.33;37.72;100707.16;1800254;79;21204;-74
2022/05/08 07:52:10;;;;;;;14.07;5.95;;;;;;;19.41;37.61;100712.00;1800238;79;20996;-74
2022/05/08 07:54:38;;;;;;;16.52;5.75;;;;;;;19.52;37.33;100697.96;1729507;83;21058;-72
2022/05/08 07:57:05;;;;;;;13.00;5.95;;;;;;;19.57;37.76;100706.52;1729617;83;21074;-73
2022/05/08 07:59:31;;;;;;;11.85;5.45;;;;;;;19.66;36.86;100707.25;1729590;83;21086;-71
2022/05/08 08:01:58;;;;;;;14.98;5.30;;;;;;;19.80;37.06;100713.91;1729435;83;21099;-73
2022/05/08 08:04:26;;;;;;;16.02;6.25;;;;;;;19.98;36.08;100706.97;1729636;83;21034;-72
2022/05/08 08:06:52;;;;;;;11.25;5.15;;;;;;;20.06;35.64;100707.29;1800774;79;21034;-72
2022/05/08 08:09:21;;;;;;;9.75;5.30;;;;;;;20.05;35.91;100704.25;1729939;83;20979;-71
2022/05/08 08:11:49;;;;;;;10.13;5.33;;;;;;;19.96;35.35;100698.19;1729838;83;21050;-72
2022/05/08 08:14:16;;;;;;;11.30;5.45;;;;;;;20.08;35.79;100699.57;1729582;83;21235;-72
2022/05/08 08:16:43;;;;;;;12.63;5.60;;;;;;;20.32;35.74;100699.70;1800456;79;20995;-71
2022/05/08 08:19:09;;;;;;;12.00;5.17;;;;;;;20.68;35.37;100694.59;1729722;82;21019;-71
2022/05/08 08:21:36;;;;;;;11.12;5.28;;;;;;;21.05;34.20;100699.55;1800357;79;21032;-73
2022/05/08 08:24:03;;;;;;;8.75;5.25;;;;;;;21.34;33.84;100691.20;1800636;79;21042;-72
2022/05/08 08:26:30;;;;;;;13.95;5.85;;;;;;;21.48;33.78;100691.06;1800578;79;21239;-71
2022/05/08 08:28:56;;;;;;;12.93;5.28;;;;;;;21.56;33.71;100687.34;1729437;83;21562;-72
2022/05/08 08:31:23;;;;;;;13.18;5.92;;;;;;;21.74;33.61;100682.45;1796762;79;21613;-72
2022/05/08 08:33:49;;;;;;;12.82;5.37;;;;;;;22.09;33.21;100678.06;1773897;80;21553;-72
2022/05/08 08:36:16;;;;;;;13.32;5.60;;;;;;;22.41;32.34;100679.13;1774128;80;21106;-73
2022/05/08 08:38:42;;;;;;;12.30;5.12;;;;;;;22.67;31.66;100673.54;1773773;80;21388;-72
2022/05/08 08:41:10;;;;;;;14.20;5.67;;;;;;;22.81;31.58;100670.61;1773804;80;21074;-74
2022/05/08 08:49:23;;;;;;;11.63;5.35;;;;;;;23.14;30.20;100669.38;1781676;80;21018;-72
2022/05/08 08:51:50;;;;;;;13.83;5.20;;;;;;;22.82;29.95;100675.02;1781877;80;21209;-74
2022/05/08 08:54:19;;;;;;;14.93;5.37;;;;;;;22.24;31.16;100680.91;1781547;80;21046;-72
2022/05/08 08:56:48;;;;;;;13.90;5.10;;;;;;;21.89;31.81;100675.06;1781996;80;21038;-73
2022/05/08 08:59:14;;;;;;;23.60;6.10;;;;;;;21.70;32.42;100682.79;1780869;80;21521;-71
2022/05/08 09:01:43;;;;;;;10.23;5.55;;;;;;;21.51;31.46;100682.82;1781542;80;21117;-72
2022/05/08 09:04:13;;;;;;;14.00;4.78;;;;;;;21.48;31.58;100679.50;1781726;80;21119;-73
2022/05/08 09:06:41;;;;;;;10.15;5.37;;;;;;;21.65;31.36;100679.58;1781761;80;20982;-73
2022/05/08 09:09:26;;;;;;;11.55;5.55;;;;;;;21.75;30.68;100680.13;1781928;80;21101;-72
2022/05/08 09:11:56;;;;;;;10.32;5.35;;;;;;;21.93;30.64;100679.22;1781635;80;21182;-73
2022/05/08 09:14:35;;;;;;;16.50;5.85;;;;;;;22.32;30.88;100666.44;1782035;80;21053;-73
2022/05/08 09:17:04;;;;;;;13.32;5.70;;;;;;;22.94;29.49;100664.27;1782093;80;20982;-71
2022/05/08 09:19:37;;;;;;;16.42;5.62;;;;;;;23.19;29.28;100659.11;1781981;80;21511;-73
2022/05/08 09:22:05;;;;;;;12.95;5.15;;;;;;;23.44;29.30;100657.48;1781957;80;21049;-71
2022/05/08 09:24:35;;;;;;;13.22;5.35;;;;;;;23.86;28.13;100660.27;1782020;80;21026;-72
2022/05/08 09:27:12;;;;;;;9.53;5.00;;;;;;;23.99;27.71;100658.73;1783013;80;20994;-73
2022/05/08 09:29:41;;;;;;;12.73;5.30;;;;;;;23.96;27.76;100657.65;1785093;80;21038;-70
2022/05/08 09:32:08;;;;;;;14.83;4.97;;;;;;;24.10;27.95;100650.25;1793408;79;21035;-73
2022/05/08 09:34:56;;;;;;;13.25;5.42;;;;;;;24.48;27.38;100654.55;1803924;79;21014;-71
2022/05/08 09:37:24;;;;;;;8.90;5.03;;;;;;;24.81;27.08;100653.91;1804117;79;21484;-71
2022/05/08 09:39:52;;;;;;;16.02;5.85;;;;;;;25.15;25.91;100648.20;1804286;79;21022;-70
2022/05/08 09:42:38;;;;;;;11.60;5.53;;;;;;;25.35;26.21;100648.25;1801550;79;21193;-72
2022/05/08 09:45:07;;;;;;;9.38;4.72;;;;;;;25.72;25.60;100641.19;1803448;79;20987;-72
2022/05/08 09:47:47;;;;;;;8.83;4.47;;;;;;;25.63;25.68;100635.77;1804064;79;21065;-72
2022/05/08 09:50:15;;;;;;;10.05;4.60;;;;;;;25.68;24.73;100641.11;1800524;79;21070;-71
2022/05/08 09:52:43;;;;;;;13.75;5.92;;;;;;;25.41;25.75;100640.96;1800595;79;21022;-71
2022/05/08 09:55:13;;;;;;;18.12;7.00;;;;;;;25.46;25.77;100638.69;1800697;79;21101;-73
2022/05/08 09:57:39;;;;;;;14.95;6.35;;;;;;;25.64;25.51;100638.34;1800593;79;21047;-72
2022/05/08 10:00:08;;;;;;;10.40;5.55;;;;;;;25.54;25.43;100629.41;1730450;82;21094;-72
2022/05/08 10:02:43;;;;;;;12.47;4.80;;;;;;;25.67;25.41;100635.34;1729968;83;21567;-72
2022/05/08 10:05:10;;;;;;;11.93;5.37;;;;;;;25.78;24.87;100634.36;1800877;79;21487;-73
2022/05/08 10:07:39;;;;;;;10.68;5.12;;;;;;;25.60;25.06;100626.13;1800547;79;21074;-71
2022/05/08 10:15:45;;;;;;;8.00;4.90;;;;;;;25.53;24.80;100620.95;1800732;79;21582;-71
2022/05/08 10:18:31;;;;;;;14.33;5.10;;;;;;;25.29;25.48;100618.17;1730145;82;21034;-72
2022/05/08 10:21:04;;;;;;;13.40;4.92;;;;;;;25.29;25.51;100624.91;1729681;83;22149;-75
2022/05/08 10:23:38;;;;;;;11.08;5.12;;;;;;;25.41;25.46;100613.50;1729781;83;21053;-71
2022/05/08 10:26:21;;;;;;;9.70;4.47;;;;;;;25.75;25.12;100619.31;1729182;83;21034;-72
2022/05/08 10:29:13;;;;;;;10.50;5.15;;;;;;;26.27;24.89;100610.89;1729904;83;21100;-71
2022/05/08 10:31:46;;;;;;;14.53;5.08;;;;;;;26.12;24.24;100599.69;1800413;79;21065;-71
2022/05/08 10:34:13;;;;;;;12.82;4.55;;;;;;;25.59;25.01;100615.00;1800760;79;21102;-72
2022/05/08 10:37:12;;;;;;;14.87;5.12;;;;;;;25.28;25.06;100612.91;1800371;79;21104;-71
2022/05/08 10:39:43;;;;;;;9.83;5.00;;;;;;;25.19;24.72;100606.54;1800215;79;21042;-73
2022/05/08 10:42:44;;;;;;;10.60;4.22;;;;;;;25.31;24.50;100602.72;1800521;79;21089;-72
2022/05/08 10:45:37;;;;;;;11.70;4.95;;;;;;;25.56;24.28;100605.86;1798950;79;21080;-71
2022/05/08 10:48:10;;;;;;;12.75;4.67;;;;;;;25.53;24.12;100592.63;1793107;79;21151;-72
2022/05/08 10:50:49;;;;;;;10.28;4.95;;;;;;;25.35;24.05;100594.33;1794672;80;20991;-73
2022/05/08 10:53:26;;;;;;;16.75;5.58;;;;;;;25.56;24.02;100584.28;1794938;79;21014;-73
2022/05/08 10:56:09;;;;;;;12.37;4.83;;;;;;;25.89;23.93;100582.14;1794832;80;21093;-73
2022/05/08 10:58:55;;;;;;;12.20;5.00;;;;;;;25.93;23.73;100571.41;1794804;80;20999;-72
2022/05/08 11:01:23;;;;;;;18.50;5.45;;;;;;;25.91;23.81;100569.36;1794902;80;21187;-72
2022/05/08 11:03:52;;;;;;;9.70;5.00;;;;;;;25.26;24.88;100573.98;1794791;80;21498;-71
2022/05/08 11:06:21;;;;;;;8.83;5.22;;;;;;;24.78;25.38;100567.12;1794797;79;21014;-71
2022/05/08 11:08:47;;;;;;;9.25;5.12;;;;;;;24.68;25.65;100564.41;1795185;79;20983;-73
2022/05/08 11:11:14;;;;;;;12.07;4.70;;;;;;;24.52;25.91;100562.23;1795031;80;21054;-72
2022/05/08 11:13:47;;;;;;;8.50;4.65;;;;;;;24.54;26.05;100564.80;1775083;79;21178;-72
2022/05/08 11:16:36;;;;;;;12.28;5.53;;;;;;;24.78;26.06;100557.22;1794812;80;21585;-72
2022/05/08 11:19:05;;;;;;;15.68;5.33;;;;;;;24.95;25.76;100550.80;1794933;79;21511;-72
2022/05/08 11:21:33;;;;;;;9.93;5.17;;;;;;;24.98;25.67;100551.86;1794750;80;21046;-71
2022/05/08 11:23:59;;;;;;;10.18;5.47;;;;;;;24.67;26.13;100549.25;1795188;79;21019;-73
2022/05/08 11:26:34;;;;;;;9.33;5.12;;;;;;;24.41;26.51;100550.18;1794678;80;21546;-73
2022/05/08 11:29:03;;;;;;;15.40;5.83;;;;;;;24.16;26.72;100542.10;1724075;83;21012;-72
2022/05/08 11:31:32;;;;;;;10.68;4.97;;;;;;;24.00;26.74;100543.42;1722092;83;21698;-73
2022/05/08 11:36:45;;;;;;;8.73;4.78;;;;;;;24.35;26.97;100549.40;1778695;80;21078;-71
2022/05/08 11:39:15;;;;;;;7.87;5.28;;;;;;;24.54;26.46;100545.95;1778350;80;21184;-73
2022/05/08 11:41:46;;;;;;;15.40;4.85;;;;;;;24.34;26.43;100537.78;1778741;80;21047;-71
2022/05/08 11:44:24;;;;;;;10.70;5.03;;;;;;;24.05;26.90;100541.18;1778455;80;21520;-72
2022/05/08 11:46:56;;;;;;;9.30;5.10;;;;;;;24.02;27.14;100531.20;1777267;80;21031;-72
2022/05/08 11:49:29;;;;;;;12.85;4.80;;;;;;;24.23;26.84;100527.95;1777660;80;21058;-72
2022/05/08 11:52:01;;;;;;;11.10;4.55;;;;;;;24.40;26.78;100525.61;1779144;80;21199;-72
2022/05/08 11:54:35;;;;;;;13.13;4.83;;;;;;;24.12;27.09;100524.52;1774142;80;21114;-72
2022/05/08 12:00:07;;;;;;;12.15;5.25;;;;;;;23.83;27.99;100531.92;1796658;79;22633;-72
2022/05/08 12:02:47;;;;;;;8.25;4.83;;;;;;;23.98;27.28;100529.26;1756592;80;20978;-72